createdAt,value
2018-12-29T00:00:44.398Z,-895.39
2018-12-29T00:01:44.480Z,-880.22
2018-12-29T00:02:44.600Z,-875.59
2018-12-29T00:03:44.685Z,-890.56
2018-12-29T00:04:44.803Z,-881.59
2018-12-29T00:05:44.897Z,-892.04
2018-12-29T00:06:44.987Z,-890.96
2018-12-29T00:07:45.104Z,-888.11
2018-12-29T00:08:45.211Z,-883.91
2018-12-29T00:09:45.311Z,-879.40
2018-12-29T00:10:45.389Z,-886.62
2018-12-29T00:11:45.493Z,-878.08
2018-12-29T00:12:45.619Z,-894.16
2018-12-29T00:13:45.818Z,-877.84
2018-12-29T00:14:45.845Z,-895.32
2018-12-29T00:15:45.925Z,-892.60
2018-12-29T00:16:46.023Z,-890.16
2018-12-29T00:17:46.139Z,-881.19
2018-12-29T00:18:46.222Z,-895.75
2018-12-29T00:19:46.349Z,-877.88
2018-12-29T00:20:46.442Z,-885.70
2018-12-29T00:21:46.640Z,-882.83
2018-12-29T00:22:46.644Z,-891.03
2018-12-29T00:23:46.725Z,-887.13
2018-12-29T00:24:46.848Z,-884.13
2018-12-29T00:25:47.188Z,-897.84
2018-12-29T00:26:47.012Z,-892.69
2018-12-29T00:27:47.133Z,-886.07
2018-12-29T00:28:47.232Z,-894.54
2018-12-29T00:29:47.429Z,-894.98
2018-12-29T00:30:47.433Z,-891.51
2018-12-29T00:31:47.520Z,-895.58
2018-12-29T00:32:47.624Z,-885.56
2018-12-29T00:33:47.709Z,-893.60
2018-12-29T00:34:47.837Z,-885.42
2018-12-29T00:35:47.944Z,-888.27
2018-12-29T00:36:48.026Z,-885.71
2018-12-29T00:37:48.160Z,-892.58
2018-12-29T00:38:48.191Z,-895.02
2018-12-29T00:39:48.330Z,-899.64
2018-12-29T00:40:48.435Z,-891.76
2018-12-29T00:41:48.513Z,-888.03
2018-12-29T00:42:48.615Z,-893.05
2018-12-29T00:43:48.736Z,-890.51
2018-12-29T00:44:48.865Z,-884.51
2018-12-29T00:45:48.973Z,-896.95
2018-12-29T00:46:49.116Z,-890.50
2018-12-29T00:47:49.148Z,-884.65
2018-12-29T00:48:49.267Z,-887.82
2018-12-29T00:49:49.393Z,-895.57
2018-12-29T00:50:49.488Z,-890.78
2018-12-29T00:51:49.553Z,-903.97
2018-12-29T00:52:49.669Z,-891.54
2018-12-29T00:53:49.816Z,-889.22
2018-12-29T00:54:50.039Z,-893.83
2018-12-29T00:55:49.980Z,-897.51
2018-12-29T00:56:50.063Z,-897.99
2018-12-29T00:57:50.177Z,-899.65
2018-12-29T00:58:50.297Z,-903.71
2018-12-29T00:59:50.402Z,-897.18
2018-12-29T01:00:50.495Z,-894.65
2018-12-29T01:01:50.577Z,-886.60
2018-12-29T01:02:50.767Z,-902.79
2018-12-29T01:03:50.797Z,-895.25
2018-12-29T01:04:50.887Z,-900.38
2018-12-29T01:05:51.033Z,-889.29
2018-12-29T01:06:51.086Z,-904.63
2018-12-29T01:07:51.164Z,-901.78
2018-12-29T01:08:51.306Z,-898.69
2018-12-29T01:09:51.391Z,-890.20
2018-12-29T01:10:51.607Z,-888.96
2018-12-29T01:11:51.588Z,-879.75
2018-12-29T01:12:51.684Z,-889.82
2018-12-29T01:13:51.784Z,-899.44
2018-12-29T01:14:51.911Z,-890.20
2018-12-29T01:15:52.002Z,-903.11
2018-12-29T01:16:52.085Z,-889.27
2018-12-29T01:17:52.188Z,-898.88
2018-12-29T01:18:52.353Z,-898.14
2018-12-29T01:19:52.377Z,-892.10
2018-12-29T01:20:52.513Z,-901.63
2018-12-29T01:21:52.586Z,-891.21
2018-12-29T01:22:52.686Z,-896.76
2018-12-29T01:23:52.802Z,-905.43
2018-12-29T01:24:52.892Z,-898.48
2018-12-29T01:25:53.037Z,-888.34
2018-12-29T01:26:53.140Z,-902.23
2018-12-29T01:27:53.243Z,-884.22
2018-12-29T01:28:53.319Z,-945.85
2018-12-29T01:29:53.399Z,-948.89
2018-12-29T01:30:53.544Z,-947.80
2018-12-29T01:31:53.583Z,-940.66
2018-12-29T01:32:53.701Z,-943.35
2018-12-29T01:33:53.817Z,-948.25
2018-12-29T01:34:53.911Z,-939.20
2018-12-29T01:35:54.175Z,-947.68
2018-12-29T01:36:54.089Z,-950.52
2018-12-29T01:37:54.202Z,-943.84
2018-12-29T01:38:54.319Z,-945.36
2018-12-29T01:39:54.403Z,-947.84
2018-12-29T01:40:54.541Z,-940.38
2018-12-29T01:41:54.600Z,-943.15
2018-12-29T01:42:54.681Z,-949.88
2018-12-29T01:43:54.977Z,-950.31
2018-12-29T01:44:54.908Z,-947.74
2018-12-29T01:45:55.033Z,-953.88
2018-12-29T01:46:55.112Z,-945.19
2018-12-29T01:47:55.196Z,-952.93
2018-12-29T01:48:55.314Z,-947.65
2018-12-29T01:49:55.410Z,-943.89
2018-12-29T01:50:55.540Z,-954.27
2018-12-29T01:51:55.747Z,-938.15
2018-12-29T01:52:55.716Z,-941.48
2018-12-29T01:53:55.841Z,-951.10
2018-12-29T01:54:55.907Z,-944.37
2018-12-29T01:55:56.050Z,-951.72
2018-12-29T01:56:56.143Z,-946.66
2018-12-29T01:57:56.226Z,-952.12
2018-12-29T01:58:56.345Z,-946.51
2018-12-29T01:59:56.477Z,-945.10
2018-12-29T02:00:56.495Z,-945.26
2018-12-29T02:01:56.629Z,-950.52
2018-12-29T02:02:56.965Z,-953.15
2018-12-29T02:03:56.844Z,-953.05
2018-12-29T02:04:56.925Z,-946.36
2018-12-29T02:05:57.052Z,-951.44
2018-12-29T02:06:57.144Z,-943.98
2018-12-29T02:07:57.233Z,-949.24
2018-12-29T02:08:57.642Z,-947.35
2018-12-29T02:09:57.632Z,-944.53
2018-12-29T02:10:57.758Z,-956.25
2018-12-29T02:11:57.849Z,-944.34
2018-12-29T02:12:57.915Z,-945.15
2018-12-29T02:13:58.049Z,-948.49
2018-12-29T02:14:58.131Z,-954.34
2018-12-29T02:15:58.260Z,-944.79
2018-12-29T02:16:58.465Z,-943.92
2018-12-29T02:17:58.413Z,-951.43
2018-12-29T02:18:58.547Z,-945.16
2018-12-29T02:19:58.626Z,-950.99
2018-12-29T02:20:58.747Z,-952.55
2018-12-29T02:21:58.842Z,-945.00
2018-12-29T02:22:58.931Z,-945.78
2018-12-29T02:23:59.032Z,-938.52
2018-12-29T02:24:59.260Z,-952.11
2018-12-29T02:25:59.366Z,-953.15
2018-12-29T02:26:59.469Z,-931.77
2018-12-29T02:27:59.639Z,-946.62
2018-12-29T02:28:59.681Z,-940.03
2018-12-29T02:29:59.756Z,-941.37
2018-12-29T02:30:59.904Z,-944.15
2018-12-29T02:32:00.004Z,-944.09
2018-12-29T02:33:00.126Z,-948.48
2018-12-29T02:34:00.275Z,-952.04
2018-12-29T02:35:00.295Z,-947.74
2018-12-29T02:36:00.414Z,-950.80
2018-12-29T02:37:00.524Z,-948.97
2018-12-29T02:38:00.619Z,-947.50
2018-12-29T02:39:00.741Z,-937.25
2018-12-29T02:40:00.827Z,-946.85
2018-12-29T02:41:00.969Z,-944.48
2018-12-29T02:42:01.024Z,-941.15
2018-12-29T02:43:01.137Z,-944.27
2018-12-29T02:44:01.273Z,-953.35
2018-12-29T02:45:01.345Z,-943.65
2018-12-29T02:46:01.476Z,-944.78
2018-12-29T02:47:01.585Z,-946.15
2018-12-29T02:48:01.652Z,-948.76
2018-12-29T02:49:01.833Z,-943.23
2018-12-29T02:50:01.975Z,-953.74
2018-12-29T02:51:02.000Z,-948.77
2018-12-29T02:52:02.142Z,-942.46
2018-12-29T02:53:02.199Z,-955.02
2018-12-29T02:54:02.343Z,-948.44
2018-12-29T02:55:02.427Z,-941.62
2018-12-29T02:56:02.545Z,-955.81
2018-12-29T02:57:02.668Z,-949.94
2018-12-29T02:58:03.036Z,-951.40
2018-12-29T02:59:02.830Z,-950.74
2018-12-29T03:00:02.878Z,-948.43
2018-12-29T03:01:02.996Z,-947.40
2018-12-29T03:02:03.098Z,-945.55
2018-12-29T03:03:03.193Z,-950.70
2018-12-29T03:04:03.334Z,-944.03
2018-12-29T03:05:03.396Z,-951.89
2018-12-29T03:06:03.609Z,-951.37
2018-12-29T03:07:03.703Z,-946.36
2018-12-29T03:08:03.761Z,-948.56
2018-12-29T03:09:03.870Z,-948.69
2018-12-29T03:10:04.008Z,-955.31
2018-12-29T03:11:04.120Z,-947.16
2018-12-29T03:12:04.256Z,-947.70
2018-12-29T03:13:04.335Z,-945.48
2018-12-29T03:14:04.485Z,-943.37
2018-12-29T03:15:04.526Z,-946.64
2018-12-29T03:16:04.668Z,-942.58
2018-12-29T03:17:04.778Z,-947.60
2018-12-29T03:18:04.950Z,-947.88
2018-12-29T03:19:04.999Z,-945.93
2018-12-29T03:20:05.095Z,-948.55
2018-12-29T03:21:05.168Z,-944.50
2018-12-29T03:22:05.364Z,-948.83
2018-12-29T03:23:05.420Z,-946.78
2018-12-29T03:24:05.541Z,-945.78
2018-12-29T03:25:05.668Z,-954.95
2018-12-29T03:26:05.746Z,-942.47
2018-12-29T03:27:05.856Z,-950.36
2018-12-29T03:28:05.961Z,-949.36
2018-12-29T03:29:06.087Z,-951.72
2018-12-29T03:30:06.254Z,-945.47
2018-12-29T03:31:06.425Z,-953.51
2018-12-29T03:32:06.446Z,-952.60
2018-12-29T03:33:06.527Z,-946.37
2018-12-29T03:34:06.647Z,-948.87
2018-12-29T03:35:06.763Z,-957.35
2018-12-29T03:36:06.861Z,-941.98
2018-12-29T03:37:07.009Z,-945.50
2018-12-29T03:38:07.078Z,-949.27
2018-12-29T03:39:07.262Z,-946.53
2018-12-29T03:40:07.301Z,-947.87
2018-12-29T03:41:07.390Z,-941.91
2018-12-29T03:42:07.788Z,-942.49
2018-12-29T03:43:07.615Z,-943.22
2018-12-29T03:44:07.706Z,-950.08
2018-12-29T03:45:07.849Z,-945.41
2018-12-29T03:46:07.940Z,-940.74
2018-12-29T03:47:08.154Z,-939.58
2018-12-29T03:48:08.185Z,-947.88
2018-12-29T03:49:08.242Z,-945.33
2018-12-29T03:50:08.352Z,-946.05
2018-12-29T03:51:08.461Z,-941.69
2018-12-29T03:52:08.608Z,-942.67
2018-12-29T03:53:08.674Z,-945.53
2018-12-29T03:54:08.782Z,-940.83
2018-12-29T03:55:08.943Z,-947.34
2018-12-29T03:56:08.962Z,-949.54
2018-12-29T03:57:09.133Z,-943.13
2018-12-29T03:58:09.208Z,-950.10
2018-12-29T03:59:09.307Z,-949.77
2018-12-29T04:00:09.419Z,-942.37
2018-12-29T04:01:09.514Z,-943.78
2018-12-29T04:02:09.655Z,-950.23
2018-12-29T04:03:09.767Z,-947.82
2018-12-29T04:04:09.878Z,-945.92
2018-12-29T04:05:09.986Z,-942.28
2018-12-29T04:06:10.076Z,-941.48
2018-12-29T04:07:10.204Z,-948.20
2018-12-29T04:08:10.268Z,-949.79
2018-12-29T04:09:10.392Z,-950.44
2018-12-29T04:10:10.517Z,-943.78
2018-12-29T04:11:10.640Z,-942.20
2018-12-29T04:12:10.816Z,-948.64
2018-12-29T04:13:10.820Z,-941.10
2018-12-29T04:14:10.945Z,-945.72
2018-12-29T04:15:11.069Z,-939.11
2018-12-29T04:16:11.171Z,-948.86
2018-12-29T04:17:11.265Z,-938.06
2018-12-29T04:18:11.389Z,-942.52
2018-12-29T04:19:11.480Z,-936.72
2018-12-29T04:20:11.697Z,-948.88
2018-12-29T04:21:11.749Z,-939.40
2018-12-29T04:22:11.834Z,-945.75
2018-12-29T04:23:11.985Z,-943.71
2018-12-29T04:24:12.034Z,-946.54
2018-12-29T04:25:12.175Z,-943.25
2018-12-29T04:26:12.281Z,-942.97
2018-12-29T04:27:12.387Z,-946.04
2018-12-29T04:28:12.621Z,-945.96
2018-12-29T04:29:12.586Z,-949.08
2018-12-29T04:30:12.696Z,-935.95
2018-12-29T04:31:12.804Z,-942.90
2018-12-29T04:32:12.919Z,-948.10
2018-12-29T04:33:13.038Z,-939.59
2018-12-29T04:34:13.127Z,-941.33
2018-12-29T04:35:13.250Z,-945.64
2018-12-29T04:36:13.378Z,-940.38
2018-12-29T04:37:13.438Z,-936.41
2018-12-29T04:38:13.576Z,-937.38
2018-12-29T04:39:13.665Z,-941.73
2018-12-29T04:40:13.781Z,-936.46
2018-12-29T04:41:13.876Z,-938.30
2018-12-29T04:42:14.015Z,-944.54
2018-12-29T04:43:14.119Z,-947.94
2018-12-29T04:44:14.267Z,-944.82
2018-12-29T04:45:14.372Z,-938.55
2018-12-29T04:46:14.426Z,-939.98
2018-12-29T04:47:14.530Z,-941.00
2018-12-29T04:48:15.018Z,-937.26
2018-12-29T04:49:14.741Z,-942.70
2018-12-29T04:50:14.896Z,-940.44
2018-12-29T04:51:14.977Z,-937.08
2018-12-29T04:52:15.099Z,-937.99
2018-12-29T04:53:15.312Z,-934.60
2018-12-29T04:54:15.296Z,-934.99
2018-12-29T04:55:15.418Z,-942.54
2018-12-29T04:56:15.510Z,-932.71
2018-12-29T04:57:15.617Z,-943.68
2018-12-29T04:58:16.041Z,-940.85
2018-12-29T04:59:15.818Z,-938.85
2018-12-29T05:00:15.937Z,-941.94
2018-12-29T05:01:16.151Z,-939.32
2018-12-29T05:02:16.152Z,-937.68
2018-12-29T05:03:16.308Z,-934.61
2018-12-29T05:04:16.358Z,-949.48
2018-12-29T05:05:16.497Z,-937.98
2018-12-29T05:06:16.604Z,-942.99
2018-12-29T05:07:16.713Z,-935.48
2018-12-29T05:08:16.965Z,-888.01
2018-12-29T05:09:16.989Z,-883.10
2018-12-29T05:10:17.016Z,-887.35
2018-12-29T05:11:17.132Z,-894.35
2018-12-29T05:12:17.255Z,-896.35
2018-12-29T05:13:17.404Z,-877.39
2018-12-29T05:14:17.497Z,-877.01
2018-12-29T05:15:17.579Z,-889.40
2018-12-29T05:16:17.685Z,-882.20
2018-12-29T05:17:17.834Z,-882.23
2018-12-29T05:18:17.898Z,-883.85
2018-12-29T05:19:18.016Z,-889.69
2018-12-29T05:20:18.098Z,-882.58
2018-12-29T05:21:18.463Z,-878.48
2018-12-29T05:22:18.339Z,-878.88
2018-12-29T05:23:18.450Z,-885.94
2018-12-29T05:24:18.660Z,-886.87
2018-12-29T05:25:18.722Z,-877.35
2018-12-29T05:26:18.859Z,-893.77
2018-12-29T05:27:18.916Z,-876.72
2018-12-29T05:28:19.023Z,-892.23
2018-12-29T05:29:19.137Z,-889.37
2018-12-29T05:30:19.236Z,-879.31
2018-12-29T05:31:19.362Z,-882.38
2018-12-29T05:32:19.450Z,-893.55
2018-12-29T05:33:19.598Z,-872.88
2018-12-29T05:34:19.802Z,-874.34
2018-12-29T05:35:19.778Z,-874.71
2018-12-29T05:36:19.894Z,-881.68
2018-12-29T05:37:19.991Z,-883.10
2018-12-29T05:38:20.116Z,-888.19
2018-12-29T05:39:20.224Z,-880.65
2018-12-29T05:40:20.292Z,-887.04
2018-12-29T05:41:20.433Z,-890.78
2018-12-29T05:42:20.645Z,-879.65
2018-12-29T05:43:20.643Z,-874.86
2018-12-29T05:44:20.752Z,-874.70
2018-12-29T05:45:20.828Z,-874.21
2018-12-29T05:46:20.972Z,-874.06
2018-12-29T05:47:21.059Z,-885.61
2018-12-29T05:48:21.183Z,-877.98
2018-12-29T05:49:21.276Z,-888.81
2018-12-29T05:50:21.432Z,-888.19
2018-12-29T05:51:21.474Z,-875.54
2018-12-29T05:52:21.585Z,-871.09
2018-12-29T05:53:21.709Z,-879.48
2018-12-29T05:54:21.818Z,-881.99
2018-12-29T05:55:21.907Z,-875.30
2018-12-29T05:56:22.123Z,-878.81
2018-12-29T05:57:22.123Z,-891.31
2018-12-29T05:58:22.288Z,-884.05
2018-12-29T05:59:22.321Z,-882.41
2018-12-29T06:00:22.431Z,-892.51
2018-12-29T06:01:22.558Z,-887.64
2018-12-29T06:02:22.655Z,-879.86
2018-12-29T06:03:22.781Z,-881.15
2018-12-29T06:04:22.869Z,-889.80
2018-12-29T06:05:22.979Z,-889.88
2018-12-29T06:06:23.116Z,-877.22
2018-12-29T06:07:23.263Z,-887.81
2018-12-29T06:08:23.299Z,-891.77
2018-12-29T06:09:23.414Z,-891.51
2018-12-29T06:10:23.513Z,-887.47
2018-12-29T06:11:23.629Z,-892.52
2018-12-29T06:12:23.726Z,-879.93
2018-12-29T06:13:23.853Z,-886.15
2018-12-29T06:14:23.974Z,-888.90
2018-12-29T06:15:24.175Z,-895.03
2018-12-29T06:16:27.699Z,-873.38
2018-12-29T06:17:24.262Z,-895.20
2018-12-29T06:18:24.385Z,-887.71
2018-12-29T06:19:24.498Z,-882.99
2018-12-29T06:20:24.562Z,-884.77
2018-12-29T06:21:24.709Z,-876.14
2018-12-29T06:22:24.845Z,-888.24
2018-12-29T06:23:25.000Z,-877.17
2018-12-29T06:24:25.028Z,-887.03
2018-12-29T06:25:25.115Z,-873.65
2018-12-29T06:26:25.258Z,-882.85
2018-12-29T06:27:25.391Z,-888.40
2018-12-29T06:28:25.472Z,-884.43
2018-12-29T06:29:25.642Z,-879.64
2018-12-29T06:30:25.707Z,-881.25
2018-12-29T06:31:25.876Z,-886.67
2018-12-29T06:32:25.915Z,-889.35
2018-12-29T06:33:26.019Z,-875.12
2018-12-29T06:34:26.144Z,-879.61
2018-12-29T06:35:26.233Z,-890.51
2018-12-29T06:36:26.361Z,-873.00
2018-12-29T06:37:26.473Z,-876.32
2018-12-29T06:38:26.534Z,-877.97
2018-12-29T06:39:26.718Z,-870.07
2018-12-29T06:40:26.772Z,-876.41
2018-12-29T06:41:26.911Z,-872.45
2018-12-29T06:42:27.019Z,-891.45
2018-12-29T06:43:27.112Z,-882.11
2018-12-29T06:44:27.208Z,-880.90
2018-12-29T06:45:27.377Z,-887.30
2018-12-29T06:46:27.435Z,-877.87
2018-12-29T06:47:27.584Z,-883.59
2018-12-29T06:48:27.749Z,-868.77
2018-12-29T06:49:27.743Z,-881.75
2018-12-29T06:50:27.861Z,-882.79
2018-12-29T06:51:27.982Z,-866.99
2018-12-29T06:52:28.084Z,-869.36
2018-12-29T06:53:28.182Z,-875.98
2018-12-29T06:54:28.309Z,-888.48
2018-12-29T06:55:28.384Z,-885.20
2018-12-29T06:56:28.595Z,-876.63
2018-12-29T06:57:28.621Z,-883.93
2018-12-29T06:58:28.727Z,-872.49
2018-12-29T06:59:29.081Z,-889.09
2018-12-29T07:00:28.931Z,-878.32
2018-12-29T07:01:32.806Z,-880.38
2018-12-29T07:02:29.169Z,-882.58
2018-12-29T07:03:29.310Z,-880.21
2018-12-29T07:04:29.521Z,-883.43
2018-12-29T07:05:29.492Z,-891.90
2018-12-29T07:06:29.618Z,-877.30
2018-12-29T07:07:29.698Z,-876.92
2018-12-29T07:08:29.821Z,-877.27
2018-12-29T07:09:29.946Z,-877.51
2018-12-29T07:10:30.035Z,-885.08
2018-12-29T07:11:30.163Z,-881.45
2018-12-29T07:12:30.287Z,-875.55
2018-12-29T07:13:30.325Z,-873.80
2018-12-29T07:14:30.471Z,-880.11
2018-12-29T07:15:30.563Z,-877.73
2018-12-29T07:16:30.713Z,-874.01
2018-12-29T07:17:30.779Z,-873.89
2018-12-29T07:18:30.909Z,-874.26
2018-12-29T07:19:30.997Z,-876.32
2018-12-29T07:20:31.134Z,-879.93
2018-12-29T07:21:31.219Z,-875.14
2018-12-29T07:22:31.324Z,-876.25
2018-12-29T07:23:31.459Z,-876.19
2018-12-29T07:24:31.565Z,-874.95
2018-12-29T07:25:31.705Z,-887.53
2018-12-29T07:26:31.760Z,-885.81
2018-12-29T07:27:31.880Z,-883.62
2018-12-29T07:28:32.025Z,-884.38
2018-12-29T07:29:38.079Z,-881.45
2018-12-29T07:30:33.177Z,-930.23
2018-12-29T07:31:32.323Z,-879.15
2018-12-29T07:32:32.417Z,-927.17
2018-12-29T07:33:32.556Z,-887.19
2018-12-29T07:34:32.657Z,-887.40
2018-12-29T07:35:32.809Z,-938.94
2018-12-29T07:36:32.874Z,-934.04
2018-12-29T07:37:33.077Z,-932.40
2018-12-29T07:38:33.099Z,-883.41
2018-12-29T07:39:33.191Z,-932.52
2018-12-29T07:40:33.284Z,-881.76
2018-12-29T07:41:33.395Z,-930.00
2018-12-29T07:42:33.487Z,-880.92
2018-12-29T07:43:33.642Z,-930.46
2018-12-29T07:44:33.743Z,-933.88
2018-12-29T07:45:33.888Z,-928.56
2018-12-29T07:46:33.923Z,-933.33
2018-12-29T07:47:34.030Z,-929.03
2018-12-29T07:48:34.171Z,-927.89
2018-12-29T07:49:34.285Z,-931.02
2018-12-29T07:50:34.375Z,-935.06
2018-12-29T07:51:34.485Z,-938.89
2018-12-29T07:52:34.622Z,-875.80
2018-12-29T07:53:34.756Z,-930.49
2018-12-29T07:54:34.801Z,-929.63
2018-12-29T07:55:34.915Z,-933.06
2018-12-29T07:56:35.023Z,-936.84
2018-12-29T07:57:35.174Z,-926.65
2018-12-29T07:58:35.234Z,-934.59
2018-12-29T07:59:35.358Z,-927.01
2018-12-29T08:00:35.432Z,-881.80
2018-12-29T08:01:35.598Z,-936.46
2018-12-29T08:02:35.724Z,-882.40
2018-12-29T08:03:35.808Z,-928.34
2018-12-29T08:04:35.921Z,-888.48
2018-12-29T08:05:36.007Z,-929.32
2018-12-29T08:06:36.101Z,-877.36
2018-12-29T08:07:36.264Z,-933.85
2018-12-29T08:08:36.333Z,-883.15
2018-12-29T08:09:36.466Z,-931.70
2018-12-29T08:10:36.655Z,-873.96
2018-12-29T08:11:36.631Z,-929.68
2018-12-29T08:12:36.782Z,-880.10
2018-12-29T08:13:36.875Z,-886.34
2018-12-29T08:14:36.987Z,-933.50
2018-12-29T08:15:37.078Z,-932.78
2018-12-29T08:16:37.186Z,-931.31
2018-12-29T08:17:37.292Z,-936.20
2018-12-29T08:18:37.495Z,-939.70
2018-12-29T08:19:37.520Z,-931.46
2018-12-29T08:20:37.606Z,-933.64
2018-12-29T08:21:37.723Z,-928.25
2018-12-29T08:22:37.832Z,-932.70
2018-12-29T08:23:37.949Z,-921.08
2018-12-29T08:24:38.092Z,-932.16
2018-12-29T08:25:38.164Z,-932.29
2018-12-29T08:26:38.346Z,-933.41
2018-12-29T08:27:38.387Z,-925.34
2018-12-29T08:28:38.477Z,-929.56
2018-12-29T08:29:38.606Z,-928.91
2018-12-29T08:30:38.712Z,-933.25
2018-12-29T08:31:38.820Z,-930.35
2018-12-29T08:32:38.949Z,-883.57
2018-12-29T08:33:39.065Z,-931.45
2018-12-29T08:34:39.180Z,-881.90
2018-12-29T08:35:39.231Z,-932.82
2018-12-29T08:36:39.371Z,-890.47
2018-12-29T08:37:39.710Z,-934.32
2018-12-29T08:38:39.597Z,-927.99
2018-12-29T08:39:39.696Z,-926.74
2018-12-29T08:40:39.794Z,-875.97
2018-12-29T08:41:39.891Z,-922.53
2018-12-29T08:42:40.079Z,-871.40
2018-12-29T08:43:40.199Z,-876.29
2018-12-29T08:44:40.252Z,-925.99
2018-12-29T08:45:40.358Z,-930.63
2018-12-29T08:46:40.466Z,-926.49
2018-12-29T08:47:40.576Z,-923.14
2018-12-29T08:48:40.695Z,-927.95
2018-12-29T08:49:41.341Z,-927.21
2018-12-29T08:50:40.942Z,-924.64
2018-12-29T08:51:41.148Z,-927.03
2018-12-29T08:52:41.133Z,-926.21
2018-12-29T08:53:41.235Z,-934.28
2018-12-29T08:54:41.384Z,-933.69
2018-12-29T08:55:41.469Z,-929.38
2018-12-29T08:56:41.581Z,-935.71
2018-12-29T08:57:42.607Z,-935.60
2018-12-29T08:58:41.768Z,-930.30
2018-12-29T08:59:42.044Z,-927.84
2018-12-29T09:00:42.022Z,-934.01
2018-12-29T09:01:42.118Z,-931.61
2018-12-29T09:02:42.243Z,-933.95
2018-12-29T09:03:42.347Z,-928.51
2018-12-29T09:04:42.443Z,-935.14
2018-12-29T09:05:42.582Z,-926.92
2018-12-29T09:06:42.677Z,-931.27
2018-12-29T09:07:42.839Z,-930.71
2018-12-29T09:08:42.894Z,-924.72
2018-12-29T09:09:42.967Z,-925.90
2018-12-29T09:10:43.110Z,-930.96
2018-12-29T09:11:43.201Z,-929.44
2018-12-29T09:12:43.327Z,-868.43
2018-12-29T09:13:43.430Z,-928.76
2018-12-29T09:14:43.523Z,-920.74
2018-12-29T09:15:43.669Z,-928.09
2018-12-29T09:16:43.721Z,-929.99
2018-12-29T09:17:43.878Z,-933.88
2018-12-29T09:18:49.714Z,-927.80
2018-12-29T09:19:45.059Z,-928.55
2018-12-29T09:20:44.198Z,-934.11
2018-12-29T09:21:44.284Z,-926.86
2018-12-29T09:22:44.386Z,-928.20
2018-12-29T09:23:44.574Z,-926.86
2018-12-29T09:24:44.651Z,-926.45
2018-12-29T09:25:44.746Z,-920.06
2018-12-29T09:26:44.821Z,-930.36
2018-12-29T09:27:44.936Z,-921.11
2018-12-29T09:28:45.042Z,-927.33
2018-12-29T09:29:45.989Z,-925.63
2018-12-29T09:30:45.300Z,-936.70
2018-12-29T09:31:45.370Z,-925.01
2018-12-29T09:32:45.615Z,-922.49
2018-12-29T09:33:45.576Z,-923.95
2018-12-29T09:34:45.719Z,-926.22
2018-12-29T09:35:45.808Z,-927.82
2018-12-29T09:36:45.898Z,-932.57
2018-12-29T09:37:46.019Z,-922.94
2018-12-29T09:38:46.107Z,-922.70
2018-12-29T09:39:46.228Z,-927.59
2018-12-29T09:40:46.472Z,-922.10
2018-12-29T09:41:46.433Z,-929.58
2018-12-29T09:42:46.561Z,-924.10
2018-12-29T09:43:46.652Z,-922.21
2018-12-29T09:44:46.765Z,-922.13
2018-12-29T09:45:46.881Z,-924.34
2018-12-29T09:46:46.972Z,-930.46
2018-12-29T09:47:47.096Z,-920.90
2018-12-29T09:48:47.208Z,-927.48
2018-12-29T09:49:47.283Z,-923.49
2018-12-29T09:50:47.381Z,-929.48
2018-12-29T09:51:47.496Z,-925.06
2018-12-29T09:52:47.602Z,-925.58
2018-12-29T09:53:47.712Z,-925.84
2018-12-29T09:54:47.846Z,-929.60
2018-12-29T09:55:47.950Z,-926.58
2018-12-29T09:56:48.107Z,-928.59
2018-12-29T09:57:48.118Z,-929.02
2018-12-29T09:58:48.249Z,-930.81
2018-12-29T09:59:48.370Z,-929.59
2018-12-29T10:00:48.488Z,-918.69
2018-12-29T10:01:48.592Z,-935.43
2018-12-29T10:02:48.678Z,-925.55
2018-12-29T10:03:48.816Z,-922.85
2018-12-29T10:04:48.965Z,-932.91
2018-12-29T10:05:49.112Z,-928.30
2018-12-29T10:06:49.174Z,-927.85
2018-12-29T10:07:49.246Z,-935.71
2018-12-29T10:08:49.368Z,-928.40
2018-12-29T10:09:49.501Z,-929.98
2018-12-29T10:10:49.596Z,-931.23
2018-12-29T10:11:49.693Z,-927.11
2018-12-29T10:12:49.801Z,-932.83
2018-12-29T10:13:50.246Z,-921.91
2018-12-29T10:14:50.024Z,-920.32
2018-12-29T10:15:50.140Z,-930.25
2018-12-29T10:16:50.233Z,-922.53
2018-12-29T10:17:50.358Z,-928.45
2018-12-29T10:18:50.457Z,-1206.65
2018-12-29T10:19:50.555Z,-926.31
2018-12-29T10:20:50.676Z,-928.14
2018-12-29T10:21:50.877Z,-927.52
2018-12-29T10:22:50.884Z,-923.10
2018-12-29T10:23:51.013Z,-934.27
2018-12-29T10:24:51.170Z,-930.56
2018-12-29T10:25:51.228Z,-929.99
2018-12-29T10:26:51.334Z,-934.66
2018-12-29T10:27:51.441Z,-933.26
2018-12-29T10:28:51.571Z,-933.78
2018-12-29T10:29:51.770Z,-930.34
2018-12-29T10:30:51.750Z,-937.68
2018-12-29T10:31:51.855Z,-932.01
2018-12-29T10:32:51.981Z,-931.49
2018-12-29T10:33:52.104Z,-933.20
2018-12-29T10:34:52.205Z,-931.47
2018-12-29T10:35:52.321Z,-933.90
2018-12-29T10:36:52.412Z,-929.10
2018-12-29T10:37:52.545Z,-924.23
2018-12-29T10:38:52.621Z,-926.76
2018-12-29T10:39:52.717Z,-934.12
2018-12-29T10:40:52.853Z,-934.43
2018-12-29T10:41:52.935Z,-925.69
2018-12-29T10:42:53.073Z,-925.60
2018-12-29T10:43:53.151Z,-927.17
2018-12-29T10:44:53.269Z,-930.07
2018-12-29T10:45:53.423Z,-930.15
2018-12-29T10:46:53.583Z,-927.59
2018-12-29T10:47:53.611Z,-924.69
2018-12-29T10:48:53.712Z,-935.62
2018-12-29T10:49:53.811Z,-924.77
2018-12-29T10:50:53.936Z,-934.59
2018-12-29T10:51:54.028Z,-927.05
2018-12-29T10:52:54.127Z,-926.78
2018-12-29T10:53:54.277Z,-933.41
2018-12-29T10:54:54.464Z,-926.80
2018-12-29T10:55:54.456Z,-919.94
2018-12-29T10:56:54.562Z,-934.83
2018-12-29T10:57:54.668Z,-929.82
2018-12-29T10:58:54.821Z,-924.67
2018-12-29T10:59:54.865Z,-928.24
2018-12-29T11:00:55.021Z,-923.56
2018-12-29T11:01:55.144Z,-932.33
2018-12-29T11:02:55.377Z,-928.08
2018-12-29T11:03:55.363Z,-936.46
2018-12-29T11:04:55.438Z,-925.84
2018-12-29T11:05:55.560Z,-929.33
2018-12-29T11:06:55.692Z,-933.51
2018-12-29T11:07:55.797Z,-930.02
2018-12-29T11:08:55.930Z,-931.13
2018-12-29T11:09:56.016Z,-935.85
2018-12-29T11:10:56.173Z,-927.79
2018-12-29T11:11:56.213Z,-931.98
2018-12-29T11:12:56.326Z,-930.94
2018-12-29T11:13:56.481Z,-932.95
2018-12-29T11:14:56.533Z,-929.91
2018-12-29T11:15:56.647Z,-933.84
2018-12-29T11:16:56.774Z,-933.13
2018-12-29T11:17:56.846Z,-927.56
2018-12-29T11:18:57.037Z,-928.95
2018-12-29T11:19:57.057Z,-930.76
2018-12-29T11:20:57.202Z,-928.19
2018-12-29T11:21:57.309Z,-931.98
2018-12-29T11:22:57.398Z,-924.20
2018-12-29T11:23:57.507Z,-938.45
2018-12-29T11:24:57.591Z,-933.02
2018-12-29T11:25:57.751Z,-927.40
2018-12-29T11:26:57.908Z,-933.53
2018-12-29T11:27:57.999Z,-928.82
2018-12-29T11:28:58.047Z,-936.93
2018-12-29T11:29:58.147Z,-931.78
2018-12-29T11:30:58.287Z,-927.86
2018-12-29T11:31:58.399Z,-934.52
2018-12-29T11:32:58.495Z,-937.05
2018-12-29T11:33:58.627Z,-931.43
2018-12-29T11:34:58.726Z,-921.53
2018-12-29T11:35:58.922Z,-933.89
2018-12-29T11:36:58.936Z,-932.12
2018-12-29T11:37:59.100Z,-937.32
2018-12-29T11:38:59.141Z,-936.50
2018-12-29T11:39:59.903Z,-934.28
2018-12-29T11:40:59.356Z,-931.76
2018-12-29T11:41:59.472Z,-932.58
2018-12-29T11:42:59.563Z,-938.02
2018-12-29T11:43:59.767Z,-933.77
2018-12-29T11:44:59.797Z,-932.88
2018-12-29T11:45:59.885Z,-938.80
2018-12-29T11:46:59.998Z,-929.30
2018-12-29T11:48:00.105Z,-930.94
2018-12-29T11:49:01.950Z,-932.62
2018-12-29T11:50:00.559Z,-934.45
2018-12-29T11:51:00.451Z,-936.14
2018-12-29T11:52:00.620Z,-935.08
2018-12-29T11:53:00.610Z,-928.33
2018-12-29T11:54:00.755Z,-929.43
2018-12-29T11:55:00.847Z,-933.10
2018-12-29T11:56:00.954Z,-932.94
2018-12-29T11:57:01.108Z,-927.82
2018-12-29T11:58:01.170Z,-923.93
2018-12-29T11:59:01.276Z,-920.80
2018-12-29T12:00:01.399Z,-933.20
2018-12-29T12:01:01.490Z,-923.66
2018-12-29T12:02:01.649Z,-926.81
2018-12-29T12:03:01.709Z,-922.14
2018-12-29T12:04:01.839Z,-924.83
2018-12-29T12:05:01.905Z,-933.40
2018-12-29T12:06:02.032Z,-869.42
2018-12-29T12:07:02.199Z,-867.84